Peary, Virginia
Current Conditions -  °F | °C
As of 10:55 AM on Thursday 23 Oct 2014 (Local Time) from KW75 Reporting Station
Broken Clouds Broken Clouds  
Wind Chill: 57°   Ceiling: 5000
Heat Index: 57°   Visibility: 10mi
Dew Point: 45°   Wind: 14mph
Humidity: 64%   Direction: 310°NW
Pressure: 29.88"   Gusts: 24mph
Location:  37.3757°N, 76.2979°W
Report Text: KW75 231455Z AUTO 31012G21KT 290V350 10SM BKN050 14/07 A2988 RMK AO1 T01400073
Loading
Personal Weather Stations






























Interactive Weather Map
Tropical Storm Tracking
New forecast layout! Learn more

10-Day Weather Forecast

Advertisements
Track Severe Weather on mobile